Time;durP1;ratioP1;P1;durP2;ratioP2;P2;SDS_P1;SDS_P2;PMS_P1;PMS_P2;Temp;Humidity;BMP_temperature;BMP_pressure;BME280_temperature;BME280_humidity;BME280_pressure;Samples;Min_cycle;Max_cycle;Signal;HPM_P1;HPM_P2
2021/07/01 00:02:04;;;;;;;3.07;2.87;;;26.30;83.20;;;;;;6218042;23;20774;-93
2021/07/01 00:04:31;;;;;;;5.00;2.83;;;26.30;83.20;;;;;;6217559;23;20488;-93
2021/07/01 00:06:58;;;;;;;3.07;2.87;;;26.30;83.20;;;;;;6217078;23;20406;-93
2021/07/01 00:09:26;;;;;;;3.33;3.13;;;26.30;83.20;;;;;;6216983;23;20532;-93
2021/07/01 00:11:56;;;;;;;3.10;2.90;;;26.30;83.20;;;;;;6217334;23;20405;-92
2021/07/01 00:14:24;;;;;;;3.40;3.10;;;26.30;83.20;;;;;;6217338;23;20473;-93
2021/07/01 00:16:53;;;;;;;3.00;2.80;;;26.30;83.20;;;;;;6217174;23;20499;-93
2021/07/01 00:19:21;;;;;;;3.20;3.00;;;26.30;83.20;;;;;;6216816;23;20405;-93
2021/07/01 00:21:47;;;;;;;3.17;2.97;;;26.30;83.20;;;;;;6216660;23;20417;-93
2021/07/01 00:24:14;;;;;;;3.47;3.27;;;26.30;83.20;;;;;;6217273;23;20401;-93
2021/07/01 00:26:41;;;;;;;3.77;3.47;;;26.30;83.20;;;;;;6217013;23;20816;-94
2021/07/01 00:29:09;;;;;;;2.93;2.73;;;26.30;83.20;;;;;;6216818;23;20819;-93
2021/07/01 00:31:36;;;;;;;3.00;2.80;;;26.30;83.30;;;;;;6217295;23;20731;-93
2021/07/01 00:34:03;;;;;;;2.27;2.17;;;26.30;83.30;;;;;;6216770;23;20450;-93
2021/07/01 00:36:36;;;;;;;3.33;3.13;;;26.30;83.30;;;;;;6217207;23;20492;-93
2021/07/01 00:39:04;;;;;;;3.30;3.10;;;26.30;83.30;;;;;;6217244;23;20456;-93
2021/07/01 00:41:31;;;;;;;3.10;2.90;;;26.20;83.20;;;;;;6217141;23;20425;-92
2021/07/01 00:43:58;;;;;;;3.20;3.00;;;26.20;83.20;;;;;;6216943;23;20500;-93
2021/07/01 00:46:27;;;;;;;3.17;2.97;;;26.30;83.30;;;;;;6217300;23;20402;-92
2021/07/01 00:48:53;;;;;;;3.60;3.30;;;26.30;83.20;;;;;;6216757;23;20444;-93
2021/07/01 00:51:20;;;;;;;3.00;2.80;;;26.30;84.00;;;;;;6216784;23;20495;-93
2021/07/01 00:53:48;;;;;;;3.03;2.83;;;26.20;83.10;;;;;;6217060;23;20488;-93
2021/07/01 00:56:15;;;;;;;5.17;3.40;;;26.30;83.20;;;;;;6217112;23;20432;-93
2021/07/01 00:58:42;;;;;;;3.03;2.83;;;26.20;83.00;;;;;;6216886;23;20853;-93
2021/07/01 01:01:09;;;;;;;2.80;2.60;;;26.20;83.00;;;;;;6216681;23;20492;-92
2021/07/01 01:03:39;;;;;;;3.20;3.00;;;26.30;83.10;;;;;;6217108;23;20500;-93
2021/07/01 01:06:09;;;;;;;3.43;3.23;;;26.20;83.00;;;;;;6217186;23;20420;-93
2021/07/01 01:08:36;;;;;;;3.07;2.87;;;26.40;83.20;;;;;;6217956;23;20451;-92
2021/07/01 01:11:03;;;;;;;3.20;3.00;;;26.20;83.10;;;;;;6217103;23;20420;-93
2021/07/01 01:13:30;;;;;;;2.90;2.77;;;26.30;83.10;;;;;;6217831;23;20953;-92
2021/07/01 01:15:59;;;;;;;3.27;3.07;;;26.20;83.00;;;;;;6217071;23;20411;-93
2021/07/01 01:18:26;;;;;;;3.20;3.00;;;26.20;83.00;;;;;;6217095;23;20746;-93
2021/07/01 01:20:57;;;;;;;3.37;3.17;;;26.20;83.00;;;;;;6217682;23;20778;-93
2021/07/01 01:23:26;;;;;;;2.90;2.70;;;26.20;83.00;;;;;;6216393;23;20417;-93
2021/07/01 01:25:56;;;;;;;2.73;2.53;;;26.20;83.00;;;;;;6217349;23;20414;-93
2021/07/01 01:28:23;;;;;;;3.07;2.87;;;26.20;82.90;;;;;;6217067;23;20457;-93
2021/07/01 01:30:50;;;;;;;3.47;3.27;;;26.20;82.90;;;;;;6216829;23;20964;-93
2021/07/01 01:33:17;;;;;;;3.00;2.80;;;26.20;82.90;;;;;;6217335;23;20422;-93
2021/07/01 01:35:44;;;;;;;3.20;3.00;;;26.20;83.80;;;;;;6217017;23;20724;-94
2021/07/01 01:38:12;;;;;;;3.10;2.90;;;26.20;82.90;;;;;;6216705;23;20412;-93
2021/07/01 01:40:42;;;;;;;3.10;2.90;;;26.20;82.90;;;;;;6216670;23;20654;-93
2021/07/01 01:43:09;;;;;;;2.90;2.70;;;26.20;82.90;;;;;;6216948;23;20789;-93
2021/07/01 01:45:39;;;;;;;3.20;3.00;;;26.20;82.90;;;;;;6216335;23;20980;-93
2021/07/01 01:48:06;;;;;;;2.80;2.60;;;26.20;82.80;;;;;;6218933;23;20409;-93
2021/07/01 01:50:35;;;;;;;2.70;2.60;;;26.20;82.80;;;;;;6192622;23;20444;-93
2021/07/01 01:53:03;;;;;;;3.07;2.87;;;26.20;82.80;;;;;;6218868;23;20931;-93
2021/07/01 01:55:30;;;;;;;2.90;2.70;;;26.20;82.80;;;;;;6219265;23;20811;-93
2021/07/01 01:57:58;;;;;;;2.70;2.60;;;26.20;82.80;;;;;;6219212;23;20448;-93
2021/07/01 02:00:26;;;;;;;3.00;2.80;;;26.20;82.80;;;;;;6218957;23;20432;-93
2021/07/01 02:02:53;;;;;;;2.50;2.40;;;26.20;82.80;;;;;;6218829;23;20806;-93
2021/07/01 02:05:20;;;;;;;2.40;2.30;;;26.20;82.90;;;;;;6218593;23;20405;-93
2021/07/01 02:07:47;;;;;;;2.53;2.43;;;26.20;82.80;;;;;;6218942;23;20904;-93
2021/07/01 02:10:16;;;;;;;3.07;2.87;;;26.20;83.60;;;;;;6218678;23;20505;-92
2021/07/01 02:12:43;;;;;;;2.60;2.50;;;26.20;82.80;;;;;;6218783;23;20413;-93
2021/07/01 02:15:14;;;;;;;2.53;2.43;;;26.20;83.60;;;;;;6218754;23;20956;-93
2021/07/01 02:17:42;;;;;;;2.27;2.17;;;26.20;82.80;;;;;;6218838;23;20420;-92
2021/07/01 02:20:10;;;;;;;2.70;2.50;;;26.20;82.80;;;;;;6218524;23;20412;-92
2021/07/01 02:22:38;;;;;;;2.87;2.67;;;26.20;82.80;;;;;;6218634;23;20454;-93
2021/07/01 02:25:06;;;;;;;2.50;2.30;;;26.20;82.80;;;;;;6218808;23;20880;-93
2021/07/01 02:27:33;;;;;;;2.80;2.60;;;26.20;82.80;;;;;;6217985;23;20535;-93
2021/07/01 02:30:01;;;;;;;3.17;2.97;;;26.20;82.80;;;;;;6218726;23;20455;-93
2021/07/01 02:32:29;;;;;;;3.03;2.83;;;26.20;82.80;;;;;;6218332;23;20433;-93
2021/07/01 02:34:56;;;;;;;2.50;2.30;;;26.20;82.80;;;;;;6217732;23;20441;-93
2021/07/01 02:37:24;;;;;;;2.97;2.77;;;26.20;82.80;;;;;;6218951;23;20409;-93
2021/07/01 02:39:51;;;;;;;2.50;2.30;;;26.20;82.70;;;;;;6218377;23;20428;-93
2021/07/01 02:42:19;;;;;;;2.30;2.20;;;26.20;82.80;;;;;;6218207;23;20503;-93
2021/07/01 02:44:46;;;;;;;2.30;2.20;;;26.10;82.60;;;;;;6218719;23;20476;-93
2021/07/01 02:47:12;;;;;;;2.70;2.50;;;26.10;82.70;;;;;;6218800;23;20809;-93
2021/07/01 02:49:41;;;;;;;2.40;2.30;;;26.20;82.80;;;;;;6218528;23;20475;-93
2021/07/01 02:52:08;;;;;;;2.50;2.40;;;26.20;82.80;;;;;;6218434;23;20413;-93
2021/07/01 02:54:35;;;;;;;2.90;2.80;;;26.10;82.70;;;;;;6218254;23;20410;-93
2021/07/01 02:57:02;;;;;;;2.50;2.40;;;26.00;83.40;;;;;;6218267;23;20459;-94
2021/07/01 02:59:29;;;;;;;3.00;2.80;;;26.10;82.70;;;;;;6218380;23;20424;-93
2021/07/01 03:01:56;;;;;;;2.70;2.50;;;26.10;82.70;;;;;;6218940;23;20961;-92
2021/07/01 03:04:23;;;;;;;3.07;2.87;;;26.10;82.70;;;;;;6219126;23;20945;-94
2021/07/01 03:06:51;;;;;;;3.10;2.90;;;26.10;82.70;;;;;;6219073;23;20802;-93
2021/07/01 03:09:18;;;;;;;2.50;2.40;;;26.10;82.70;;;;;;6218636;23;20468;-93
2021/07/01 03:11:45;;;;;;;3.27;2.37;;;26.10;82.70;;;;;;6218477;23;20996;-93
2021/07/01 03:14:12;;;;;;;2.90;2.70;;;26.10;82.70;;;;;;6218466;23;20401;-93
2021/07/01 03:16:39;;;;;;;2.43;2.33;;;26.10;82.70;;;;;;6218538;23;20466;-93
2021/07/01 03:19:06;;;;;;;2.40;2.30;;;26.10;82.70;;;;;;6217811;23;20953;-93
2021/07/01 03:21:33;;;;;;;2.63;2.43;;;26.10;82.60;;;;;;6218849;23;20778;-93
2021/07/01 03:24:02;;;;;;;2.70;2.50;;;26.10;82.70;;;;;;6191571;23;20974;-93
2021/07/01 03:26:28;;;;;;;2.80;2.60;;;26.10;82.70;;;;;;6218045;23;20421;-93
2021/07/01 03:28:55;;;;;;;2.47;2.27;;;26.10;82.70;;;;;;6217853;23;20473;-93
2021/07/01 03:31:22;;;;;;;2.40;2.30;;;26.10;82.70;;;;;;6219277;23;20500;-93
2021/07/01 03:34:08;;;;;;;2.30;2.20;;;26.10;82.60;;;;;;6218377;23;20444;-93
2021/07/01 03:36:35;;;;;;;2.67;2.47;;;26.10;82.60;;;;;;6217718;23;20424;-93
2021/07/01 03:39:05;;;;;;;3.33;3.03;;;26.10;82.70;;;;;;6219114;23;20489;-93
2021/07/01 03:41:32;;;;;;;2.80;2.60;;;26.10;82.60;;;;;;6217937;23;20415;-93
2021/07/01 03:43:59;;;;;;;2.47;2.37;;;26.10;82.60;;;;;;6218631;23;20783;-93
2021/07/01 03:46:26;;;;;;;2.17;2.07;;;26.10;82.60;;;;;;6217770;23;20468;-93
2021/07/01 03:48:53;;;;;;;2.63;2.53;;;26.10;82.60;;;;;;6217709;23;20429;-93
2021/07/01 03:51:20;;;;;;;2.27;2.17;;;26.10;82.60;;;;;;6217670;23;20496;-92
2021/07/01 03:53:47;;;;;;;2.67;2.57;;;26.10;82.60;;;;;;6217777;23;20493;-93
2021/07/01 03:56:15;;;;;;;2.67;2.57;;;26.10;82.60;;;;;;6217447;23;20507;-93
2021/07/01 03:58:42;;;;;;;2.10;2.00;;;26.10;82.60;;;;;;6217768;23;20491;-93
2021/07/01 04:01:09;;;;;;;2.53;2.43;;;26.10;82.60;;;;;;6218380;23;20398;-93
2021/07/01 04:03:36;;;;;;;2.47;2.37;;;26.10;82.60;;;;;;6217159;23;20437;-93
2021/07/01 04:06:04;;;;;;;2.83;2.63;;;26.10;82.60;;;;;;6227694;23;20404;-91
2021/07/01 04:08:31;;;;;;;2.30;2.20;;;26.10;82.60;;;;;;6224057;23;20872;-93
2021/07/01 04:10:58;;;;;;;2.90;2.70;;;26.10;83.40;;;;;;6218756;23;20531;-94
2021/07/01 04:13:26;;;;;;;2.60;2.50;;;26.00;82.50;;;;;;6219225;23;20886;-93
2021/07/01 04:15:53;;;;;;;2.70;2.50;;;26.00;82.50;;;;;;6217277;23;20413;-94
2021/07/01 04:18:20;;;;;;;2.70;2.50;;;26.00;82.50;;;;;;6217978;23;20433;-93
2021/07/01 04:20:47;;;;;;;3.27;3.07;;;26.10;82.60;;;;;;6217115;23;20436;-93
2021/07/01 04:23:13;;;;;;;2.60;2.40;;;26.00;82.50;;;;;;6217093;23;20451;-93
2021/07/01 04:25:40;;;;;;;2.83;2.73;;;26.10;82.60;;;;;;6217719;23;20436;-93
2021/07/01 04:28:07;;;;;;;2.90;2.70;;;26.00;82.50;;;;;;6216941;23;20515;-93
2021/07/01 04:30:36;;;;;;;2.33;2.23;;;26.00;82.40;;;;;;6216752;23;20533;-93
2021/07/01 04:33:02;;;;;;;2.57;2.47;;;26.00;82.40;;;;;;6217671;23;20445;-94
2021/07/01 04:35:29;;;;;;;2.80;2.60;;;26.00;82.40;;;;;;6216779;23;20469;-93
2021/07/01 04:37:56;;;;;;;2.67;2.53;;;26.10;82.50;;;;;;6217464;23;20406;-93
2021/07/01 04:40:23;;;;;;;2.73;2.53;;;26.00;83.20;;;;;;6216969;23;20432;-93
2021/07/01 04:42:50;;;;;;;2.40;2.30;;;26.00;82.40;;;;;;6217459;23;20784;-93
2021/07/01 04:45:17;;;;;;;2.47;2.37;;;26.00;82.40;;;;;;6216561;23;20898;-94
2021/07/01 04:47:45;;;;;;;3.03;2.83;;;26.00;82.40;;;;;;6216822;23;20484;-93
2021/07/01 04:50:13;;;;;;;2.90;2.70;;;26.10;82.50;;;;;;6217010;23;20442;-93
2021/07/01 04:52:40;;;;;;;2.67;2.47;;;26.00;82.30;;;;;;6217508;23;20496;-93
2021/07/01 04:55:07;;;;;;;2.67;2.47;;;26.00;82.30;;;;;;6217946;23;20757;-94
2021/07/01 04:57:34;;;;;;;2.40;2.30;;;26.10;82.40;;;;;;6216809;23;20814;-94
2021/07/01 05:00:01;;;;;;;2.63;2.43;;;26.00;82.20;;;;;;6217529;23;20484;-93
2021/07/01 05:02:28;;;;;;;2.80;2.60;;;26.10;82.30;;;;;;6216358;23;20448;-93
2021/07/01 05:04:56;;;;;;;2.53;2.43;;;26.00;82.20;;;;;;6217260;23;20792;-93
2021/07/01 05:07:23;;;;;;;2.50;2.30;;;26.00;82.30;;;;;;6217535;23;20801;-94
2021/07/01 05:09:50;;;;;;;2.10;2.00;;;26.00;82.20;;;;;;6216859;23;20468;-93
2021/07/01 05:12:17;;;;;;;2.23;2.13;;;26.00;82.30;;;;;;6216737;23;20443;-94
2021/07/01 05:14:44;;;;;;;2.00;1.90;;;26.00;82.20;;;;;;6217124;23;20496;-93
2021/07/01 05:17:11;;;;;;;2.33;2.23;;;26.00;82.20;;;;;;6216266;23;20437;-93
2021/07/01 05:19:38;;;;;;;2.30;2.20;;;26.00;82.20;;;;;;6178015;23;20405;-92
2021/07/01 05:22:06;;;;;;;2.37;2.20;;;26.00;82.20;;;;;;6216185;23;20513;-94
2021/07/01 05:24:33;;;;;;;2.73;2.60;;;26.00;82.20;;;;;;6216242;23;20479;-94
2021/07/01 05:27:00;;;;;;;2.40;2.30;;;26.00;83.00;;;;;;6216409;23;20472;-93
2021/07/01 05:29:27;;;;;;;2.30;2.10;;;26.00;83.10;;;;;;6216245;23;20436;-94
2021/07/01 05:31:54;;;;;;;2.40;2.30;;;26.00;82.20;;;;;;6216905;23;20476;-94
2021/07/01 05:34:21;;;;;;;2.60;2.50;;;26.00;82.20;;;;;;6216530;23;20465;-94
2021/07/01 05:36:48;;;;;;;2.23;2.13;;;26.00;82.20;;;;;;6217112;23;20498;-93
2021/07/01 05:39:16;;;;;;;2.53;2.40;;;26.00;82.20;;;;;;6216390;23;20429;-94
2021/07/01 05:41:50;;;;;;;2.40;2.30;;;26.00;82.20;;;;;;6216487;23;20516;-92
2021/07/01 05:44:17;;;;;;;2.53;2.33;;;26.00;82.20;;;;;;6217622;23;20432;-93
2021/07/01 05:46:44;;;;;;;2.30;2.10;;;26.00;82.10;;;;;;6216434;23;20731;-93
2021/07/01 05:49:12;;;;;;;1.87;1.73;;;26.00;82.20;;;;;;6216349;23;20447;-94
2021/07/01 05:51:40;;;;;;;2.70;2.50;;;26.00;82.10;;;;;;6216232;23;20434;-93
2021/07/01 05:54:11;;;;;;;2.10;2.00;;;26.00;82.10;;;;;;6217207;23;20414;-93
2021/07/01 05:56:39;;;;;;;1.90;1.80;;;26.00;82.10;;;;;;6190410;23;20479;-93
2021/07/01 05:59:08;;;;;;;2.00;1.90;;;25.90;82.10;;;;;;6216645;23;20425;-94
2021/07/01 06:01:36;;;;;;;2.07;1.97;;;26.00;82.10;;;;;;6216778;23;20954;-94
2021/07/01 06:04:04;;;;;;;1.93;1.83;;;26.00;82.10;;;;;;6216149;23;20416;-93
2021/07/01 06:06:33;;;;;;;2.10;2.00;;;26.00;82.10;;;;;;6217288;23;20416;-94
2021/07/01 06:09:01;;;;;;;2.20;2.10;;;26.00;82.10;;;;;;6216375;23;20491;-93
2021/07/01 06:11:29;;;;;;;2.60;2.40;;;26.00;82.10;;;;;;6216888;23;20551;-93
2021/07/01 06:13:57;;;;;;;1.90;1.80;;;26.00;82.20;;;;;;6216561;23;20947;-93
2021/07/01 06:16:26;;;;;;;2.33;2.23;;;26.00;82.20;;;;;;6216522;23;20980;-93
2021/07/01 06:18:54;;;;;;;2.10;2.00;;;26.00;83.00;;;;;;6216344;23;20472;-93
2021/07/01 06:21:22;;;;;;;2.07;1.97;;;26.00;82.10;;;;;;6216811;23;20412;-93
2021/07/01 06:23:49;;;;;;;2.20;2.10;;;26.00;82.10;;;;;;6216100;23;20491;-93
2021/07/01 06:26:23;;;;;;;1.87;1.77;;;26.00;82.10;;;;;;6216479;23;20432;-94
2021/07/01 06:28:50;;;;;;;2.40;2.30;;;26.00;82.10;;;;;;6216892;23;20505;-93
2021/07/01 06:31:19;;;;;;;2.13;2.00;;;26.00;82.10;;;;;;6215950;23;20440;-93
2021/07/01 06:33:47;;;;;;;1.97;1.87;;;26.00;82.20;;;;;;6218050;23;20435;-93
2021/07/01 06:36:18;;;;;;;1.90;1.80;;;26.00;82.10;;;;;;6218401;23;20451;-94
2021/07/01 06:38:50;;;;;;;2.20;2.10;;;26.00;82.10;;;;;;6218718;23;20428;-93
2021/07/01 06:41:18;;;;;;;2.53;2.43;;;26.00;82.10;;;;;;6218923;23;20776;-93
2021/07/01 06:43:47;;;;;;;2.80;2.60;;;26.00;82.10;;;;;;6219103;23;20760;-93
2021/07/01 06:46:15;;;;;;;2.13;2.03;;;26.00;82.10;;;;;;6217798;23;20394;-94
2021/07/01 06:48:44;;;;;;;2.07;1.97;;;26.00;82.10;;;;;;6217468;23;20491;-93
2021/07/01 06:51:11;;;;;;;1.83;1.73;;;26.00;82.00;;;;;;6220099;23;21018;-93
2021/07/01 06:53:41;;;;;;;2.30;2.10;;;26.00;82.00;;;;;;6218108;23;20405;-93
2021/07/01 06:56:08;;;;;;;2.37;2.00;;;26.00;81.90;;;;;;6218153;23;20452;-89
2021/07/01 06:58:36;;;;;;;3.90;3.50;;;26.00;81.80;;;;;;6217185;23;20441;-89
2021/07/01 07:01:04;;;;;;;4.40;4.00;;;26.00;79.30;;;;;;6217592;23;20758;-88
2021/07/01 07:03:31;;;;;;;5.07;4.57;;;25.90;77.20;;;;;;6217306;23;20438;-89
2021/07/01 07:06:02;;;;;;;5.60;4.63;;;25.70;76.00;;;;;;6217058;23;20412;-89
2021/07/01 07:08:30;;;;;;;6.53;4.60;;;25.60;75.20;;;;;;6217082;23;20394;-89
2021/07/01 07:10:58;;;;;;;7.13;5.07;;;25.50;75.80;;;;;;6217596;23;20948;-87
2021/07/01 07:13:25;;;;;;;4.90;3.60;;;25.30;75.30;;;;;;6217388;23;20408;-87
2021/07/01 07:15:54;;;;;;;5.63;4.77;;;25.20;75.20;;;;;;6217355;23;20873;-88
2021/07/01 07:18:22;;;;;;;6.53;4.83;;;25.10;75.20;;;;;;6217271;23;20402;-87
2021/07/01 07:20:54;;;;;;;4.57;3.97;;;25.00;76.00;;;;;;6217421;23;20414;-88
2021/07/01 07:23:30;;;;;;;6.23;4.50;;;25.00;76.30;;;;;;6217016;23;20860;-87
2021/07/01 07:25:57;;;;;;;5.00;3.30;;;25.00;76.70;;;;;;6217217;23;20428;-88
2021/07/01 07:28:26;;;;;;;4.33;3.97;;;25.00;77.20;;;;;;6216396;23;20480;-88
2021/07/01 07:30:54;;;;;;;5.00;3.27;;;25.20;77.90;;;;;;6216583;23;20479;-88
2021/07/01 07:33:24;;;;;;;3.70;3.33;;;25.20;78.40;;;;;;6216665;23;20403;-88
2021/07/01 07:35:51;;;;;;;3.13;2.83;;;25.30;79.70;;;;;;6216745;23;20418;-88
2021/07/01 07:38:19;;;;;;;4.70;4.00;;;25.30;79.00;;;;;;6216385;23;20438;-88
2021/07/01 07:40:49;;;;;;;3.93;3.33;;;25.40;79.10;;;;;;6216693;23;20410;-88
2021/07/01 07:43:19;;;;;;;3.20;2.90;;;25.40;79.10;;;;;;6217153;23;20412;-88
2021/07/01 07:45:47;;;;;;;4.73;3.10;;;25.40;79.10;;;;;;6216292;23;20397;-88
2021/07/01 07:48:14;;;;;;;3.00;2.80;;;25.50;79.20;;;;;;6216742;23;20409;-88
2021/07/01 07:50:43;;;;;;;3.60;3.03;;;25.50;79.20;;;;;;6216555;23;20518;-87
2021/07/01 07:53:15;;;;;;;3.73;3.17;;;25.50;80.00;;;;;;6216767;23;20906;-88
2021/07/01 07:55:46;;;;;;;3.17;2.87;;;25.50;79.10;;;;;;6216465;23;20963;-87
2021/07/01 07:58:16;;;;;;;7.57;3.20;;;25.50;79.00;;;;;;6216670;23;20918;-88
2021/07/01 08:00:43;;;;;;;3.40;3.10;;;25.60;78.90;;;;;;6216693;23;20419;-88
2021/07/01 08:03:12;;;;;;;3.20;2.83;;;25.60;78.80;;;;;;6216860;23;20428;-91
2021/07/01 08:05:40;;;;;;;2.93;2.70;;;25.60;78.80;;;;;;6204820;23;20802;-88
2021/07/01 08:08:12;;;;;;;4.07;2.77;;;25.60;79.00;;;;;;6216845;23;20501;-88
2021/07/01 08:13:23;;;;;;;4.50;3.50;;;25.60;78.70;;;;;;6168815;23;20445;-95
2021/07/01 08:15:50;;;;;;;5.77;3.20;;;25.60;78.70;;;;;;6186287;23;20409;-91
2021/07/01 08:18:25;;;;;;;5.77;2.97;;;25.60;79.50;;;;;;6187459;23;20409;-94
2021/07/01 08:20:52;;;;;;;8.63;3.70;;;25.70;78.70;;;;;;6186677;23;20952;-90
2021/07/01 08:23:20;;;;;;;3.13;2.67;;;25.60;78.60;;;;;;6187117;23;20411;-88
2021/07/01 08:25:48;;;;;;;3.10;2.77;;;25.70;78.60;;;;;;6186442;23;20435;-91
2021/07/01 08:31:16;;;;;;;3.73;3.33;;;25.70;78.60;;;;;;6158606;23;20541;-95
2021/07/01 08:33:46;;;;;;;3.57;2.83;;;25.70;78.70;;;;;;6156915;23;20501;-94
2021/07/01 08:36:15;;;;;;;3.73;2.53;;;25.70;78.80;;;;;;6157289;23;20801;-91
2021/07/01 08:38:43;;;;;;;3.43;2.90;;;25.70;78.80;;;;;;6157242;23;20782;-91
2021/07/01 08:41:18;;;;;;;6.80;2.90;;;25.70;78.70;;;;;;6157294;23;20791;-91
2021/07/01 08:43:53;;;;;;;3.93;2.63;;;25.70;78.70;;;;;;6158915;23;20493;-87
2021/07/01 08:55:19;;;;;;;3.37;3.07;;;25.70;79.00;;;;;;6184864;22;20451;-94
2021/07/01 09:03:11;;;;;;;9.43;5.57;;;25.80;80.30;;;;;;6167344;23;20925;-92
2021/07/01 09:05:40;;;;;;;7.80;5.07;;;25.80;80.60;;;;;;6157941;23;20441;-93
2021/07/01 09:08:10;;;;;;;7.90;5.53;;;25.80;80.60;;;;;;6216050;23;20479;-90
2021/07/01 09:10:37;;;;;;;7.87;4.93;;;25.80;79.90;;;;;;6216430;23;20400;-88
2021/07/01 09:13:08;;;;;;;8.67;4.93;;;25.80;80.00;;;;;;6216071;23;20440;-88
2021/07/01 09:15:36;;;;;;;7.40;4.73;;;25.80;79.80;;;;;;6216445;23;20450;-87
2021/07/01 09:18:04;;;;;;;12.30;5.23;;;25.80;79.70;;;;;;6216310;23;20412;-88
2021/07/01 09:20:35;;;;;;;8.13;4.50;;;25.80;79.70;;;;;;6216365;23;20411;-86
2021/07/01 09:23:03;;;;;;;10.57;5.57;;;25.80;79.70;;;;;;6216314;23;20403;-86
2021/07/01 09:25:30;;;;;;;8.20;5.00;;;25.80;79.90;;;;;;6215949;23;20425;-87
2021/07/01 09:27:58;;;;;;;10.00;5.90;;;25.80;80.20;;;;;;6216096;23;20877;-89
2021/07/01 09:30:27;;;;;;;8.47;5.10;;;25.80;80.30;;;;;;6216322;23;20416;-89
2021/07/01 09:32:57;;;;;;;10.83;5.83;;;25.80;79.70;;;;;;6215702;23;20497;-88
2021/07/01 09:35:25;;;;;;;8.30;5.70;;;25.80;79.80;;;;;;6216414;23;20409;-88
2021/07/01 09:37:54;;;;;;;8.90;5.20;;;25.70;79.70;;;;;;6215968;23;20413;-87
2021/07/01 09:40:23;;;;;;;13.77;6.83;;;25.70;79.80;;;;;;6216177;23;20411;-86
2021/07/01 09:42:53;;;;;;;10.27;5.83;;;25.70;80.00;;;;;;6215705;23;20931;-87
2021/07/01 09:45:23;;;;;;;8.60;5.13;;;25.70;80.20;;;;;;6215743;23;20474;-87
2021/07/01 09:47:54;;;;;;;12.30;5.77;;;25.80;80.10;;;;;;6216270;23;20401;-86
2021/07/01 09:50:25;;;;;;;8.73;4.80;;;25.80;80.00;;;;;;6215808;23;20409;-88
2021/07/01 09:52:56;;;;;;;9.70;4.50;;;25.80;79.90;;;;;;6215672;23;20842;-88
2021/07/01 09:55:27;;;;;;;7.33;5.10;;;25.80;79.90;;;;;;6215327;23;20428;-85
2021/07/01 09:58:00;;;;;;;7.57;4.17;;;25.80;79.90;;;;;;6215130;23;20393;-88
2021/07/01 10:00:30;;;;;;;7.50;4.03;;;25.70;79.80;;;;;;6216072;23;20420;-88
2021/07/01 10:03:05;;;;;;;5.33;3.90;;;25.70;79.90;;;;;;6215698;23;20454;-85
2021/07/01 10:05:32;;;;;;;5.03;4.30;;;25.80;80.00;;;;;;6185541;23;20405;-88
2021/07/01 10:08:00;;;;;;;5.80;4.40;;;25.70;79.90;;;;;;6186056;23;20406;-88
2021/07/01 10:10:27;;;;;;;5.47;4.20;;;25.80;80.10;;;;;;6187292;23;20401;-87
2021/07/01 10:12:55;;;;;;;5.20;4.10;;;25.90;80.20;;;;;;6187367;23;20552;-87
2021/07/01 10:15:28;;;;;;;5.30;4.80;;;25.70;79.90;;;;;;6187307;23;20410;-88
2021/07/01 10:18:07;;;;;;;7.03;4.80;;;25.80;80.00;;;;;;6187236;23;20484;-89
2021/07/01 10:20:35;;;;;;;7.53;4.27;;;25.80;80.10;;;;;;6186898;23;20448;-85
2021/07/01 10:23:04;;;;;;;6.60;4.63;;;25.70;80.20;;;;;;6187160;23;20418;-85
2021/07/01 10:25:33;;;;;;;9.63;5.00;;;25.70;80.10;;;;;;6187846;23;20545;-91
2021/07/01 10:28:10;;;;;;;24.13;5.80;;;25.70;80.00;;;;;;6187784;23;20408;-91
2021/07/01 10:30:38;;;;;;;6.27;4.53;;;25.70;79.90;;;;;;6175502;23;20485;-90
2021/07/01 10:33:05;;;;;;;5.33;4.23;;;25.70;80.20;;;;;;6187623;23;20444;-91
2021/07/01 10:35:34;;;;;;;7.53;4.73;;;25.70;80.40;;;;;;6187343;23;20417;-91
2021/07/01 10:38:08;;;;;;;6.07;4.60;;;25.70;80.60;;;;;;6187761;23;20410;-90
2021/07/01 10:40:37;;;;;;;6.90;4.10;;;25.80;80.70;;;;;;6188171;23;20421;-91
2021/07/01 10:43:06;;;;;;;7.83;4.40;;;25.80;80.80;;;;;;6186864;23;20973;-91
2021/07/01 10:45:33;;;;;;;7.33;5.20;;;25.90;80.90;;;;;;6186924;23;20421;-91
2021/07/01 10:48:15;;;;;;;6.60;4.20;;;25.80;80.90;;;;;;6186904;23;20414;-90
2021/07/01 10:50:43;;;;;;;4.93;4.10;;;25.80;80.80;;;;;;6188380;23;20409;-89
2021/07/01 10:53:32;;;;;;;7.23;5.10;;;25.80;80.90;;;;;;6185743;23;20484;-89
2021/07/01 10:56:02;;;;;;;4.60;4.17;;;25.80;80.40;;;;;;6185882;23;20463;-89
2021/07/01 10:58:40;;;;;;;5.00;4.53;;;25.80;80.20;;;;;;6185493;23;20459;-88
2021/07/01 11:01:07;;;;;;;5.23;4.73;;;25.80;80.20;;;;;;6186262;23;20395;-89
2021/07/01 11:03:35;;;;;;;6.07;4.23;;;25.80;80.20;;;;;;6191047;23;20451;-89
2021/07/01 11:06:04;;;;;;;9.30;5.10;;;25.80;80.30;;;;;;6217270;23;20481;-89
2021/07/01 11:08:34;;;;;;;4.70;4.00;;;25.80;81.20;;;;;;6217438;23;20415;-89
2021/07/01 11:11:02;;;;;;;4.60;3.90;;;25.80;80.40;;;;;;6217259;23;20415;-92
2021/07/01 11:13:31;;;;;;;4.50;4.20;;;25.90;80.60;;;;;;6217419;23;20456;-92
2021/07/01 11:16:08;;;;;;;4.67;4.27;;;25.80;80.50;;;;;;6216343;23;20402;-93
2021/07/01 11:18:40;;;;;;;5.13;4.63;;;25.80;80.60;;;;;;6216732;23;20906;-92
2021/07/01 11:21:13;;;;;;;5.10;4.60;;;25.80;80.80;;;;;;6216311;23;20411;-92
2021/07/01 11:23:43;;;;;;;4.20;3.90;;;25.80;80.90;;;;;;6217082;23;20422;-92
2021/07/01 11:26:28;;;;;;;7.13;3.87;;;25.80;81.00;;;;;;6217032;23;20421;-92
2021/07/01 11:28:56;;;;;;;4.60;4.20;;;25.80;80.80;;;;;;6217387;23;20908;-92
2021/07/01 11:31:45;;;;;;;4.07;3.77;;;25.80;80.90;;;;;;6216673;23;20491;-92
2021/07/01 11:34:14;;;;;;;4.40;4.03;;;25.80;80.80;;;;;;6211440;23;20443;-91
2021/07/01 11:36:51;;;;;;;4.67;3.57;;;25.80;81.80;;;;;;6215876;23;20491;-91
2021/07/01 11:39:26;;;;;;;4.33;3.93;;;25.80;81.00;;;;;;6216991;23;20393;-92
2021/07/01 11:41:55;;;;;;;4.37;4.07;;;25.80;81.10;;;;;;6216920;23;20437;-91
2021/07/01 11:44:23;;;;;;;4.10;3.73;;;25.80;81.10;;;;;;6216316;23;20496;-92
2021/07/01 11:46:51;;;;;;;4.90;4.40;;;25.80;81.20;;;;;;6216790;23;20523;-91
2021/07/01 11:49:21;;;;;;;4.00;3.20;;;25.80;81.20;;;;;;6217595;23;20413;-91
2021/07/01 11:51:47;;;;;;;3.90;3.60;;;25.80;81.20;;;;;;6217068;23;20432;-92
2021/07/01 11:54:15;;;;;;;4.50;4.10;;;25.80;81.30;;;;;;6216804;23;20475;-92
2021/07/01 11:56:55;;;;;;;4.00;3.60;;;25.80;81.30;;;;;;6216910;23;20423;-89
2021/07/01 11:59:25;;;;;;;4.60;3.90;;;25.80;81.30;;;;;;6217047;23;20389;-91
2021/07/01 12:01:53;;;;;;;4.07;3.87;;;25.80;81.30;;;;;;6216883;23;20408;-90
2021/07/01 12:04:26;;;;;;;5.13;4.53;;;25.80;81.20;;;;;;6216740;23;20437;-91
2021/07/01 12:07:03;;;;;;;4.13;3.73;;;25.80;81.20;;;;;;6216720;23;20400;-91
2021/07/01 12:09:32;;;;;;;4.77;4.37;;;25.80;81.10;;;;;;6224500;23;20422;-91
2021/07/01 12:12:18;;;;;;;4.60;3.67;;;25.80;81.10;;;;;;6216592;23;20499;-91
2021/07/01 12:14:48;;;;;;;4.33;3.93;;;25.80;81.10;;;;;;6217010;23;20432;-91
2021/07/01 12:17:54;;;;;;;4.47;4.17;;;25.90;81.30;;;;;;6217188;23;20412;-91
2021/07/01 12:20:38;;;;;;;7.50;3.70;;;25.80;81.20;;;;;;6216905;23;20413;-91
2021/07/01 12:23:21;;;;;;;8.43;4.57;;;25.80;81.30;;;;;;6216665;23;20479;-92
2021/07/01 12:25:49;;;;;;;5.67;4.07;;;25.80;81.40;;;;;;6216852;23;20425;-91
2021/07/01 12:28:22;;;;;;;3.83;3.40;;;25.80;81.40;;;;;;6216715;23;20807;-91
2021/07/01 12:30:55;;;;;;;3.20;3.00;;;25.80;81.60;;;;;;6216142;23;20440;-91
2021/07/01 12:33:43;;;;;;;5.83;3.53;;;25.80;81.70;;;;;;6216845;23;20444;-88
2021/07/01 12:39:40;;;;;;;4.70;3.80;;;25.90;81.60;;;;;;6223648;23;20367;-95
2021/07/01 12:42:26;;;;;;;6.03;4.30;;;25.80;81.20;;;;;;6218998;23;20414;-92
2021/07/01 12:45:04;;;;;;;3.30;3.10;;;25.80;80.80;;;;;;6217486;23;20437;-93
2021/07/01 12:47:36;;;;;;;4.13;3.60;;;25.80;81.20;;;;;;6217257;23;20981;-93
2021/07/01 12:50:07;;;;;;;4.10;3.70;;;25.80;81.30;;;;;;6216945;23;20477;-90
2021/07/01 12:52:42;;;;;;;3.87;3.57;;;25.70;81.40;;;;;;6216357;23;20479;-88
2021/07/01 12:55:18;;;;;;;3.87;3.57;;;25.70;82.30;;;;;;6217088;23;20431;-91
2021/07/01 12:57:45;;;;;;;9.13;3.60;;;25.70;81.40;;;;;;6217105;23;20419;-89
2021/07/01 13:00:13;;;;;;;4.40;3.67;;;25.70;81.40;;;;;;6215639;23;20468;-88
2021/07/01 13:02:40;;;;;;;3.60;3.20;;;25.70;81.40;;;;;;6215761;23;20919;-89
2021/07/01 13:05:09;;;;;;;4.10;3.77;;;25.70;81.40;;;;;;6216477;23;20440;-90
2021/07/01 13:07:37;;;;;;;3.40;3.20;;;25.70;81.30;;;;;;6216800;23;20414;-90
2021/07/01 13:10:07;;;;;;;5.40;3.60;;;25.70;81.20;;;;;;6216241;23;20405;-89
2021/07/01 13:12:36;;;;;;;3.30;3.07;;;25.70;81.40;;;;;;6216511;23;20440;-93
2021/07/01 13:15:06;;;;;;;3.03;2.73;;;25.70;81.40;;;;;;6216688;23;20870;-92
2021/07/01 13:17:38;;;;;;;3.67;3.17;;;25.70;81.60;;;;;;6225129;22;20397;-96
2021/07/01 13:20:16;;;;;;;3.00;2.80;;;25.70;81.60;;;;;;6224003;23;20606;-95